Terminal Aerodrome Forecast (TAF)

TAF

Data at: 2240 UTC 16 Jun 2019

TAF for:NVSC (Sola/Vanua Lava Arpt, --, NV) issued at 2220 UTC 16 Jun 2019
Text:TAF NVSC 162220Z 1700/1724 12010G20KT 9999 SCT020 BKN040
Forecast period:0000 UTC 17 June 2019 to 0000 UTC 18 June 2019
Forecast type:FROM: standard forecast or significant change
Winds:from the ESE (120 degrees) at 12 MPH (10 knots; 5.1 m/s) gusting to 23 MPH (20 knots; 10.3 m/s)
Visibility:6 or more sm (10+ km)
Ceiling:4000 feet AGL
Clouds: scattered clouds at 2000 feet AGL, broken clouds at 4000 feet AGL
Text:INTER 1700/1706 9000 SHRA BKN017
Forecast period:0000 to 0600 UTC 17 June 2019
Forecast type:TEMPORARY: The following changes expected for less than half the time period
Visibility: 6 sm ( 9 km)
Ceiling:1700 feet AGL
Clouds: broken clouds at 1700 feet AGL
Weather:SHRA (rain showers)

TAF

Data at: 2240 UTC 16 Jun 2019

TAF for:NVSG (Longana Arpt, --, NV) issued at 2220 UTC 16 Jun 2019
Text:TAF NVSG 162220Z 1700/1724 12010G20KT 9999 SCT020 BKN040
Forecast period:0000 UTC 17 June 2019 to 0000 UTC 18 June 2019
Forecast type:FROM: standard forecast or significant change
Winds:from the ESE (120 degrees) at 12 MPH (10 knots; 5.1 m/s) gusting to 23 MPH (20 knots; 10.3 m/s)
Visibility:6 or more sm (10+ km)
Ceiling:4000 feet AGL
Clouds: scattered clouds at 2000 feet AGL, broken clouds at 4000 feet AGL
Text:PROB30
Forecast period:0000 to 0600 UTC 17 June 2019
Forecast type:TEMPORARY: The following changes expected for less than half the time period
Visibility: 6 sm ( 9 km)
Ceiling:1700 feet AGL
Clouds: broken clouds at 1700 feet AGL
Weather:SHRA (rain showers)

TAF

Data at: 2240 UTC 16 Jun 2019

TAF for:NVSS (Santo/Pekoa Intl, --, NV) issued at 2220 UTC 16 Jun 2019
Text:TAF NVSS 162220Z 1700/1724 15007KT 9999 SCT020 BKN040
Forecast period:0000 UTC 17 June 2019 to 0000 UTC 18 June 2019
Forecast type:FROM: standard forecast or significant change
Winds:from the SSE (150 degrees) at 8 MPH (7 knots; 3.6 m/s)
Visibility:6 or more sm (10+ km)
Ceiling:4000 feet AGL
Clouds: scattered clouds at 2000 feet AGL, broken clouds at 4000 feet AGL
Text:INTER 1700/1706 9000 -SHRA BKN018
Forecast period:0000 to 0600 UTC 17 June 2019
Forecast type:TEMPORARY: The following changes expected for less than half the time period
Visibility: 6 sm ( 9 km)
Ceiling:1800 feet AGL
Clouds: broken clouds at 1800 feet AGL
Weather:-SHRA (light rain showers)

TAF

Data at: 2240 UTC 16 Jun 2019

TAF for:NVSL (Malekula/Lamap, --, NV) issued at 2220 UTC 16 Jun 2019
Text:TAF NVSL 162220Z 1700/1724 11015KT 9999 SCT020 BKN040
Forecast period:0000 UTC 17 June 2019 to 0000 UTC 18 June 2019
Forecast type:FROM: standard forecast or significant change
Winds:from the ESE (110 degrees) at 17 MPH (15 knots; 7.7 m/s)
Visibility:6 or more sm (10+ km)
Ceiling:4000 feet AGL
Clouds: scattered clouds at 2000 feet AGL, broken clouds at 4000 feet AGL
Text:PROB30
Forecast period:0000 to 0600 UTC 17 June 2019
Forecast type:TEMPORARY: The following changes expected for less than half the time period
Visibility: 6 sm ( 9 km)
Ceiling:1800 feet AGL
Clouds: broken clouds at 1800 feet AGL
Weather:-SHRA (light rain showers)

TAF

Data at: 2240 UTC 16 Jun 2019

TAF for:NVSP (Norsup Arpt, --, NV) issued at 2220 UTC 16 Jun 2019
Text:TAF NVSP 162220Z 1700/1724 10010KT 9999 SCT020 BKN040
Forecast period:0000 UTC 17 June 2019 to 0000 UTC 18 June 2019
Forecast type:FROM: standard forecast or significant change
Winds:from the E (100 degrees) at 12 MPH (10 knots; 5.1 m/s)
Visibility:6 or more sm (10+ km)
Ceiling:4000 feet AGL
Clouds: scattered clouds at 2000 feet AGL, broken clouds at 4000 feet AGL
Text:PROB30
Forecast period:0000 to 0600 UTC 17 June 2019
Forecast type:TEMPORARY: The following changes expected for less than half the time period
Visibility: 6 sm ( 9 km)
Ceiling:1800 feet AGL
Clouds: broken clouds at 1800 feet AGL
Weather:-SHRA (light rain showers)

TAF

Data at: 2240 UTC 16 Jun 2019

TAF for:NVVV (Efate/Bauerfield Int, --, NV) issued at 2220 UTC 16 Jun 2019
Text:TAF NVVV 162220Z 1700/1724 10006KT 9999 SCT020 BKN040
Forecast period:0000 UTC 17 June 2019 to 0000 UTC 18 June 2019
Forecast type:FROM: standard forecast or significant change
Winds:from the E (100 degrees) at 7 MPH (6 knots; 3.1 m/s)
Visibility:6 or more sm (10+ km)
Ceiling:4000 feet AGL
Clouds: scattered clouds at 2000 feet AGL, broken clouds at 4000 feet AGL
Text:PROB30
Forecast period:0000 to 0600 UTC 17 June 2019
Forecast type:TEMPORARY: The following changes expected for less than half the time period
Visibility: 6 sm ( 9 km)
Ceiling:1800 feet AGL
Clouds: broken clouds at 1800 feet AGL
Weather:-SHRA (light rain showers)

TAF

Data at: 2240 UTC 16 Jun 2019

TAF for:NVVW (Tanna Arpt, --, NV) issued at 2220 UTC 16 Jun 2019
Text:TAF NVVW 162220Z 1700/1724 13006KT 9999 SCT020
Forecast period:0000 UTC 17 June 2019 to 0000 UTC 18 June 2019
Forecast type:FROM: standard forecast or significant change
Winds:from the SE (130 degrees) at 7 MPH (6 knots; 3.1 m/s)
Visibility:6 or more sm (10+ km)
Ceiling:at least 12,000 feet AGL
Clouds: scattered clouds at 2000 feet AGL
Text:PROB30
Forecast period:0000 to 0600 UTC 17 June 2019
Forecast type:TEMPORARY: The following changes expected for less than half the time period
Visibility: 6 sm ( 9 km)
Ceiling:1800 feet AGL
Clouds: broken clouds at 1800 feet AGL
Weather:-SHRA (light rain showers)

TAF

Data at: 2240 UTC 16 Jun 2019

TAF for:NVVA (Aneityum/Mystery Isl, --, NV) issued at 2220 UTC 16 Jun 2019
Text:TAF NVVA 162220Z 1700/1724 13010KT 9999 SCT020
Forecast period:0000 UTC 17 June 2019 to 0000 UTC 18 June 2019
Forecast type:FROM: standard forecast or significant change
Winds:from the SE (130 degrees) at 12 MPH (10 knots; 5.1 m/s)
Visibility:6 or more sm (10+ km)
Ceiling:at least 12,000 feet AGL
Clouds: scattered clouds at 2000 feet AGL
Text:PROB30
Forecast period:0000 to 0600 UTC 17 June 2019
Forecast type:TEMPORARY: The following changes expected for less than half the time period
Visibility: 6 sm ( 9 km)
Ceiling:1800 feet AGL
Clouds: broken clouds at 1800 feet AGL
Weather:-SHRA (light rain showers)

TAF

Data at: 2240 UTC 16 Jun 2019

TAF NVVV 162220Z 1700/1724 10006KT 9999 SCT020 BKN040
  PROB30
  INTER 1700/1706 9000 -SHRA BKN018
TAF NVSC 162220Z 1700/1724 12010G20KT 9999 SCT020 BKN040
  INTER 1700/1706 9000 SHRA BKN017
TAF NVSG 162220Z 1700/1724 12010G20KT 9999 SCT020 BKN040
  PROB30
  INTER 1700/1706 9000 SHRA BKN017
TAF NVSS 162220Z 1700/1724 15007KT 9999 SCT020 BKN040
  INTER 1700/1706 9000 -SHRA BKN018
TAF NVSL 162220Z 1700/1724 11015KT 9999 SCT020 BKN040
  PROB30
  INTER 1700/1706 9000 -SHRA BKN018
TAF NVSP 162220Z 1700/1724 10010KT 9999 SCT020 BKN040
  PROB30
  INTER 1700/1706 9000 -SHRA BKN018
TAF NVVW 162220Z 1700/1724 13006KT 9999 SCT020
  PROB30
  INTER 1700/1706 9000 -SHRA BKN018
TAF NVVA 162220Z 1700/1724 13010KT 9999 SCT020
  PROB30
  INTER 1700/1706 9000 -SHRA BKN018